sensor_id;sensor_type;location;lat;lon;timestamp;P1;durP1;ratioP1;P2;durP2;ratioP2
80175;SDS011;69501;42.124;24.722;2023-07-20T00:01:13;17.45;;;8.73;;
80175;SDS011;69501;42.124;24.722;2023-07-20T00:03:39;12.73;;;8.57;;
80175;SDS011;69501;42.124;24.722;2023-07-20T00:06:04;16.75;;;9.00;;
80175;SDS011;69501;42.124;24.722;2023-07-20T00:08:30;15.93;;;8.73;;
80175;SDS011;69501;42.124;24.722;2023-07-20T00:10:56;14.80;;;8.60;;
80175;SDS011;69501;42.124;24.722;2023-07-20T00:13:22;13.52;;;7.90;;
80175;SDS011;69501;42.124;24.722;2023-07-20T00:15:47;12.48;;;8.10;;
80175;SDS011;69501;42.124;24.722;2023-07-20T00:18:13;16.85;;;8.43;;
80175;SDS011;69501;42.124;24.722;2023-07-20T00:20:39;16.77;;;8.80;;
80175;SDS011;69501;42.124;24.722;2023-07-20T00:23:05;12.27;;;8.38;;
80175;SDS011;69501;42.124;24.722;2023-07-20T00:25:30;17.70;;;8.20;;
80175;SDS011;69501;42.124;24.722;2023-07-20T00:27:56;15.05;;;8.30;;
80175;SDS011;69501;42.124;24.722;2023-07-20T00:30:22;8.77;;;7.78;;
80175;SDS011;69501;42.124;24.722;2023-07-20T00:32:48;16.08;;;8.43;;
80175;SDS011;69501;42.124;24.722;2023-07-20T00:35:13;19.48;;;8.35;;
80175;SDS011;69501;42.124;24.722;2023-07-20T00:37:39;12.02;;;7.85;;
80175;SDS011;69501;42.124;24.722;2023-07-20T00:40:05;16.35;;;7.78;;
80175;SDS011;69501;42.124;24.722;2023-07-20T00:42:32;14.95;;;7.85;;
80175;SDS011;69501;42.124;24.722;2023-07-20T00:44:58;13.15;;;7.63;;
80175;SDS011;69501;42.124;24.722;2023-07-20T00:47:25;12.32;;;7.40;;
80175;SDS011;69501;42.124;24.722;2023-07-20T00:49:52;11.43;;;7.60;;
80175;SDS011;69501;42.124;24.722;2023-07-20T00:52:18;15.02;;;7.55;;
80175;SDS011;69501;42.124;24.722;2023-07-20T00:54:46;14.55;;;7.47;;
80175;SDS011;69501;42.124;24.722;2023-07-20T00:57:13;15.75;;;7.72;;
80175;SDS011;69501;42.124;24.722;2023-07-20T00:59:40;18.38;;;8.02;;
80175;SDS011;69501;42.124;24.722;2023-07-20T01:02:06;19.92;;;7.40;;
80175;SDS011;69501;42.124;24.722;2023-07-20T01:04:32;11.63;;;7.05;;
80175;SDS011;69501;42.124;24.722;2023-07-20T01:14:45;18.85;;;7.93;;
80175;SDS011;69501;42.124;24.722;2023-07-20T01:17:13;12.85;;;7.82;;
80175;SDS011;69501;42.124;24.722;2023-07-20T01:19:39;11.63;;;6.80;;
80175;SDS011;69501;42.124;24.722;2023-07-20T01:33:15;13.90;;;7.22;;
80175;SDS011;69501;42.124;24.722;2023-07-20T01:35:42;9.40;;;6.63;;
80175;SDS011;69501;42.124;24.722;2023-07-20T01:38:10;13.52;;;7.13;;
80175;SDS011;69501;42.124;24.722;2023-07-20T01:40:37;19.42;;;6.53;;
80175;SDS011;69501;42.124;24.722;2023-07-20T01:43:04;13.65;;;6.57;;
80175;SDS011;69501;42.124;24.722;2023-07-20T01:45:30;11.23;;;6.57;;
80175;SDS011;69501;42.124;24.722;2023-07-20T01:47:55;16.85;;;6.82;;
80175;SDS011;69501;42.124;24.722;2023-07-20T01:50:21;13.80;;;7.45;;
80175;SDS011;69501;42.124;24.722;2023-07-20T01:52:47;15.70;;;7.32;;
80175;SDS011;69501;42.124;24.722;2023-07-20T01:55:13;11.57;;;6.82;;
80175;SDS011;69501;42.124;24.722;2023-07-20T01:57:39;12.52;;;7.15;;
80175;SDS011;69501;42.124;24.722;2023-07-20T02:00:05;12.27;;;7.07;;
80175;SDS011;69501;42.124;24.722;2023-07-20T02:02:31;17.60;;;7.47;;
80175;SDS011;69501;42.124;24.722;2023-07-20T02:04:57;14.15;;;7.85;;
80175;SDS011;69501;42.124;24.722;2023-07-20T02:07:23;14.43;;;6.65;;
80175;SDS011;69501;42.124;24.722;2023-07-20T02:09:49;11.45;;;7.20;;
80175;SDS011;69501;42.124;24.722;2023-07-20T02:12:14;22.10;;;7.93;;
80175;SDS011;69501;42.124;24.722;2023-07-20T02:14:40;16.85;;;7.90;;
80175;SDS011;69501;42.124;24.722;2023-07-20T02:17:06;15.40;;;7.75;;
80175;SDS011;69501;42.124;24.722;2023-07-20T02:19:31;11.85;;;7.15;;
80175;SDS011;69501;42.124;24.722;2023-07-20T02:21:57;21.60;;;7.90;;
80175;SDS011;69501;42.124;24.722;2023-07-20T02:24:23;20.70;;;8.10;;
80175;SDS011;69501;42.124;24.722;2023-07-20T02:26:50;25.58;;;8.10;;
80175;SDS011;69501;42.124;24.722;2023-07-20T02:29:15;18.02;;;7.60;;
80175;SDS011;69501;42.124;24.722;2023-07-20T02:31:41;18.50;;;7.53;;
80175;SDS011;69501;42.124;24.722;2023-07-20T02:34:07;16.60;;;8.63;;
80175;SDS011;69501;42.124;24.722;2023-07-20T02:36:34;19.58;;;8.88;;
80175;SDS011;69501;42.124;24.722;2023-07-20T02:39:00;19.90;;;8.77;;
80175;SDS011;69501;42.124;24.722;2023-07-20T02:41:28;17.75;;;9.15;;
80175;SDS011;69501;42.124;24.722;2023-07-20T02:43:58;22.08;;;8.88;;
80175;SDS011;69501;42.124;24.722;2023-07-20T02:46:24;16.95;;;8.35;;
80175;SDS011;69501;42.124;24.722;2023-07-20T02:48:49;20.52;;;9.05;;
80175;SDS011;69501;42.124;24.722;2023-07-20T02:51:15;13.98;;;9.27;;
80175;SDS011;69501;42.124;24.722;2023-07-20T02:53:40;21.65;;;10.20;;
80175;SDS011;69501;42.124;24.722;2023-07-20T02:56:07;18.48;;;11.10;;
80175;SDS011;69501;42.124;24.722;2023-07-20T02:58:33;16.58;;;10.30;;
80175;SDS011;69501;42.124;24.722;2023-07-20T03:01:02;19.25;;;9.63;;
80175;SDS011;69501;42.124;24.722;2023-07-20T03:03:28;19.40;;;9.95;;
80175;SDS011;69501;42.124;24.722;2023-07-20T03:05:53;17.60;;;10.98;;
80175;SDS011;69501;42.124;24.722;2023-07-20T03:08:21;22.08;;;11.43;;
80175;SDS011;69501;42.124;24.722;2023-07-20T03:10:47;19.90;;;9.90;;
80175;SDS011;69501;42.124;24.722;2023-07-20T03:13:12;16.73;;;9.20;;
80175;SDS011;69501;42.124;24.722;2023-07-20T03:15:39;18.80;;;10.13;;
80175;SDS011;69501;42.124;24.722;2023-07-20T03:18:04;19.02;;;9.95;;
80175;SDS011;69501;42.124;24.722;2023-07-20T03:20:30;31.20;;;10.10;;
80175;SDS011;69501;42.124;24.722;2023-07-20T03:22:56;20.58;;;9.52;;
80175;SDS011;69501;42.124;24.722;2023-07-20T03:25:22;18.52;;;9.45;;
80175;SDS011;69501;42.124;24.722;2023-07-20T03:27:47;16.55;;;8.88;;
80175;SDS011;69501;42.124;24.722;2023-07-20T03:30:13;28.42;;;9.65;;
80175;SDS011;69501;42.124;24.722;2023-07-20T03:32:39;26.48;;;9.50;;
80175;SDS011;69501;42.124;24.722;2023-07-20T03:35:05;20.35;;;9.18;;
80175;SDS011;69501;42.124;24.722;2023-07-20T03:37:31;14.57;;;8.32;;
80175;SDS011;69501;42.124;24.722;2023-07-20T03:39:59;14.55;;;8.55;;
80175;SDS011;69501;42.124;24.722;2023-07-20T03:42:25;24.33;;;9.90;;
80175;SDS011;69501;42.124;24.722;2023-07-20T03:44:51;17.63;;;10.00;;
80175;SDS011;69501;42.124;24.722;2023-07-20T03:47:16;29.48;;;8.55;;
80175;SDS011;69501;42.124;24.722;2023-07-20T03:49:42;20.70;;;9.23;;
80175;SDS011;69501;42.124;24.722;2023-07-20T03:52:08;27.48;;;10.55;;
80175;SDS011;69501;42.124;24.722;2023-07-20T03:54:36;26.20;;;9.48;;
80175;SDS011;69501;42.124;24.722;2023-07-20T03:57:02;20.52;;;9.48;;
80175;SDS011;69501;42.124;24.722;2023-07-20T03:59:27;19.60;;;9.50;;
80175;SDS011;69501;42.124;24.722;2023-07-20T04:01:53;21.92;;;8.93;;
80175;SDS011;69501;42.124;24.722;2023-07-20T04:04:19;23.85;;;9.90;;
80175;SDS011;69501;42.124;24.722;2023-07-20T04:06:45;28.63;;;9.20;;
80175;SDS011;69501;42.124;24.722;2023-07-20T04:09:11;32.78;;;11.35;;
80175;SDS011;69501;42.124;24.722;2023-07-20T04:11:37;27.77;;;11.68;;
80175;SDS011;69501;42.124;24.722;2023-07-20T04:14:03;24.13;;;10.90;;
80175;SDS011;69501;42.124;24.722;2023-07-20T04:16:29;29.60;;;13.88;;
80175;SDS011;69501;42.124;24.722;2023-07-20T04:18:55;22.17;;;12.48;;
80175;SDS011;69501;42.124;24.722;2023-07-20T04:21:21;22.15;;;11.13;;
80175;SDS011;69501;42.124;24.722;2023-07-20T04:23:48;21.77;;;11.40;;
80175;SDS011;69501;42.124;24.722;2023-07-20T04:26:14;21.27;;;10.88;;
80175;SDS011;69501;42.124;24.722;2023-07-20T04:28:43;20.40;;;12.57;;
80175;SDS011;69501;42.124;24.722;2023-07-20T04:31:11;24.25;;;12.15;;
80175;SDS011;69501;42.124;24.722;2023-07-20T04:33:38;28.05;;;12.07;;
80175;SDS011;69501;42.124;24.722;2023-07-20T04:36:04;34.15;;;14.75;;
80175;SDS011;69501;42.124;24.722;2023-07-20T04:38:29;27.17;;;14.30;;
80175;SDS011;69501;42.124;24.722;2023-07-20T04:40:55;27.80;;;13.15;;
80175;SDS011;69501;42.124;24.722;2023-07-20T04:43:21;28.52;;;13.05;;
80175;SDS011;69501;42.124;24.722;2023-07-20T04:45:47;28.58;;;13.02;;
80175;SDS011;69501;42.124;24.722;2023-07-20T04:48:13;26.60;;;11.88;;
80175;SDS011;69501;42.124;24.722;2023-07-20T04:50:41;28.00;;;10.93;;
80175;SDS011;69501;42.124;24.722;2023-07-20T04:53:13;26.73;;;12.02;;
80175;SDS011;69501;42.124;24.722;2023-07-20T04:55:38;21.27;;;10.77;;
80175;SDS011;69501;42.124;24.722;2023-07-20T04:58:05;23.35;;;10.68;;
80175;SDS011;69501;42.124;24.722;2023-07-20T05:00:32;22.80;;;11.57;;
80175;SDS011;69501;42.124;24.722;2023-07-20T05:02:59;27.63;;;12.02;;
80175;SDS011;69501;42.124;24.722;2023-07-20T05:05:25;23.20;;;14.18;;
80175;SDS011;69501;42.124;24.722;2023-07-20T05:07:50;26.35;;;14.65;;
80175;SDS011;69501;42.124;24.722;2023-07-20T05:10:16;34.22;;;13.65;;
80175;SDS011;69501;42.124;24.722;2023-07-20T05:12:42;37.45;;;12.73;;
80175;SDS011;69501;42.124;24.722;2023-07-20T05:15:08;22.63;;;10.57;;
80175;SDS011;69501;42.124;24.722;2023-07-20T05:17:34;26.27;;;13.68;;
80175;SDS011;69501;42.124;24.722;2023-07-20T05:20:00;23.30;;;12.43;;
80175;SDS011;69501;42.124;24.722;2023-07-20T05:22:26;27.35;;;12.38;;
80175;SDS011;69501;42.124;24.722;2023-07-20T05:24:51;28.80;;;12.50;;
80175;SDS011;69501;42.124;24.722;2023-07-20T05:27:17;22.05;;;12.15;;
80175;SDS011;69501;42.124;24.722;2023-07-20T05:29:43;20.58;;;11.50;;
80175;SDS011;69501;42.124;24.722;2023-07-20T05:32:10;23.92;;;12.38;;
80175;SDS011;69501;42.124;24.722;2023-07-20T05:34:35;21.50;;;12.13;;
80175;SDS011;69501;42.124;24.722;2023-07-20T05:37:01;26.60;;;12.45;;
80175;SDS011;69501;42.124;24.722;2023-07-20T05:39:26;23.33;;;12.45;;
80175;SDS011;69501;42.124;24.722;2023-07-20T05:41:52;19.92;;;11.63;;
80175;SDS011;69501;42.124;24.722;2023-07-20T05:44:17;22.00;;;12.32;;
80175;SDS011;69501;42.124;24.722;2023-07-20T05:46:43;27.73;;;11.20;;
80175;SDS011;69501;42.124;24.722;2023-07-20T05:49:09;26.17;;;13.05;;
80175;SDS011;69501;42.124;24.722;2023-07-20T05:51:35;26.42;;;12.60;;
80175;SDS011;69501;42.124;24.722;2023-07-20T05:54:01;29.27;;;11.77;;
80175;SDS011;69501;42.124;24.722;2023-07-20T05:56:27;24.65;;;10.82;;
80175;SDS011;69501;42.124;24.722;2023-07-20T05:58:52;26.20;;;12.13;;
80175;SDS011;69501;42.124;24.722;2023-07-20T06:01:18;21.70;;;10.85;;
80175;SDS011;69501;42.124;24.722;2023-07-20T06:03:44;20.05;;;11.15;;
80175;SDS011;69501;42.124;24.722;2023-07-20T06:06:10;26.10;;;10.32;;
80175;SDS011;69501;42.124;24.722;2023-07-20T06:08:37;24.60;;;11.23;;
80175;SDS011;69501;42.124;24.722;2023-07-20T06:11:03;18.75;;;10.52;;
80175;SDS011;69501;42.124;24.722;2023-07-20T06:13:28;16.95;;;10.27;;
80175;SDS011;69501;42.124;24.722;2023-07-20T06:15:54;30.67;;;13.25;;
80175;SDS011;69501;42.124;24.722;2023-07-20T06:18:22;21.83;;;11.85;;
80175;SDS011;69501;42.124;24.722;2023-07-20T06:20:51;22.95;;;11.25;;
80175;SDS011;69501;42.124;24.722;2023-07-20T06:23:20;20.42;;;10.45;;
80175;SDS011;69501;42.124;24.722;2023-07-20T06:25:46;18.55;;;11.30;;
80175;SDS011;69501;42.124;24.722;2023-07-20T06:28:12;17.95;;;10.50;;
80175;SDS011;69501;42.124;24.722;2023-07-20T06:30:38;21.90;;;11.05;;
80175;SDS011;69501;42.124;24.722;2023-07-20T06:33:04;21.00;;;11.13;;
80175;SDS011;69501;42.124;24.722;2023-07-20T06:35:31;30.27;;;11.15;;
80175;SDS011;69501;42.124;24.722;2023-07-20T06:37:57;24.27;;;12.75;;
80175;SDS011;69501;42.124;24.722;2023-07-20T06:40:24;22.77;;;11.68;;
80175;SDS011;69501;42.124;24.722;2023-07-20T06:42:49;19.77;;;11.52;;
80175;SDS011;69501;42.124;24.722;2023-07-20T06:45:15;24.58;;;11.93;;
80175;SDS011;69501;42.124;24.722;2023-07-20T06:47:41;23.95;;;11.35;;
80175;SDS011;69501;42.124;24.722;2023-07-20T06:50:07;29.40;;;11.68;;
80175;SDS011;69501;42.124;24.722;2023-07-20T06:52:34;22.30;;;10.52;;
80175;SDS011;69501;42.124;24.722;2023-07-20T06:55:00;15.43;;;10.05;;
80175;SDS011;69501;42.124;24.722;2023-07-20T06:57:26;22.95;;;10.50;;
80175;SDS011;69501;42.124;24.722;2023-07-20T06:59:51;17.10;;;9.95;;
80175;SDS011;69501;42.124;24.722;2023-07-20T07:02:18;20.15;;;10.77;;
80175;SDS011;69501;42.124;24.722;2023-07-20T07:04:44;22.60;;;10.93;;
80175;SDS011;69501;42.124;24.722;2023-07-20T07:07:10;20.02;;;10.10;;
80175;SDS011;69501;42.124;24.722;2023-07-20T07:09:36;23.23;;;10.18;;
80175;SDS011;69501;42.124;24.722;2023-07-20T07:12:01;11.27;;;9.50;;
80175;SDS011;69501;42.124;24.722;2023-07-20T07:14:27;20.95;;;9.57;;
80175;SDS011;69501;42.124;24.722;2023-07-20T07:16:53;16.38;;;9.32;;
80175;SDS011;69501;42.124;24.722;2023-07-20T07:19:18;25.85;;;9.70;;
80175;SDS011;69501;42.124;24.722;2023-07-20T07:21:45;21.55;;;10.05;;
80175;SDS011;69501;42.124;24.722;2023-07-20T07:24:10;21.92;;;10.15;;
80175;SDS011;69501;42.124;24.722;2023-07-20T07:26:36;18.20;;;9.27;;
80175;SDS011;69501;42.124;24.722;2023-07-20T07:29:02;13.43;;;9.65;;
80175;SDS011;69501;42.124;24.722;2023-07-20T07:31:28;18.75;;;10.18;;
80175;SDS011;69501;42.124;24.722;2023-07-20T07:33:56;16.42;;;9.18;;
80175;SDS011;69501;42.124;24.722;2023-07-20T07:36:22;16.13;;;9.90;;
80175;SDS011;69501;42.124;24.722;2023-07-20T07:38:49;12.95;;;10.10;;
80175;SDS011;69501;42.124;24.722;2023-07-20T07:41:15;17.90;;;10.05;;
80175;SDS011;69501;42.124;24.722;2023-07-20T07:43:41;18.25;;;9.57;;
80175;SDS011;69501;42.124;24.722;2023-07-20T07:46:06;20.88;;;9.82;;
80175;SDS011;69501;42.124;24.722;2023-07-20T07:48:32;19.02;;;9.80;;
80175;SDS011;69501;42.124;24.722;2023-07-20T07:50:58;16.73;;;10.07;;
80175;SDS011;69501;42.124;24.722;2023-07-20T07:53:23;15.57;;;10.30;;
80175;SDS011;69501;42.124;24.722;2023-07-20T07:55:51;13.02;;;8.95;;
80175;SDS011;69501;42.124;24.722;2023-07-20T07:58:17;18.13;;;9.65;;
80175;SDS011;69501;42.124;24.722;2023-07-20T08:00:42;17.25;;;9.52;;
80175;SDS011;69501;42.124;24.722;2023-07-20T08:03:09;15.18;;;9.63;;
80175;SDS011;69501;42.124;24.722;2023-07-20T08:05:35;16.65;;;9.98;;
80175;SDS011;69501;42.124;24.722;2023-07-20T08:08:04;16.65;;;8.75;;
80175;SDS011;69501;42.124;24.722;2023-07-20T08:10:30;13.18;;;9.35;;
80175;SDS011;69501;42.124;24.722;2023-07-20T08:12:56;13.93;;;9.52;;
80175;SDS011;69501;42.124;24.722;2023-07-20T08:15:21;17.00;;;9.05;;
80175;SDS011;69501;42.124;24.722;2023-07-20T08:17:47;21.40;;;9.73;;
80175;SDS011;69501;42.124;24.722;2023-07-20T08:20:14;17.80;;;9.52;;
80175;SDS011;69501;42.124;24.722;2023-07-20T08:22:42;12.77;;;9.05;;
80175;SDS011;69501;42.124;24.722;2023-07-20T08:25:08;14.20;;;9.13;;
80175;SDS011;69501;42.124;24.722;2023-07-20T08:27:34;16.60;;;10.02;;
80175;SDS011;69501;42.124;24.722;2023-07-20T08:30:00;13.35;;;9.35;;
80175;SDS011;69501;42.124;24.722;2023-07-20T08:32:26;14.32;;;9.90;;
80175;SDS011;69501;42.124;24.722;2023-07-20T08:34:52;13.68;;;9.15;;
80175;SDS011;69501;42.124;24.722;2023-07-20T08:37:17;12.32;;;9.32;;
80175;SDS011;69501;42.124;24.722;2023-07-20T08:39:43;15.18;;;9.52;;
80175;SDS011;69501;42.124;24.722;2023-07-20T08:42:09;13.55;;;9.85;;
80175;SDS011;69501;42.124;24.722;2023-07-20T08:44:36;14.85;;;10.13;;
80175;SDS011;69501;42.124;24.722;2023-07-20T08:47:03;20.38;;;10.55;;
80175;SDS011;69501;42.124;24.722;2023-07-20T08:49:33;22.98;;;10.52;;
80175;SDS011;69501;42.124;24.722;2023-07-20T08:52:00;12.40;;;9.45;;
80175;SDS011;69501;42.124;24.722;2023-07-20T08:54:28;10.55;;;9.02;;
80175;SDS011;69501;42.124;24.722;2023-07-20T08:57:02;11.27;;;9.60;;
80175;SDS011;69501;42.124;24.722;2023-07-20T08:59:29;14.25;;;8.73;;
80175;SDS011;69501;42.124;24.722;2023-07-20T09:01:56;15.98;;;9.82;;
80175;SDS011;69501;42.124;24.722;2023-07-20T09:04:23;16.42;;;10.23;;
80175;SDS011;69501;42.124;24.722;2023-07-20T09:06:49;13.40;;;9.18;;
80175;SDS011;69501;42.124;24.722;2023-07-20T09:09:15;15.20;;;9.48;;
80175;SDS011;69501;42.124;24.722;2023-07-20T09:11:41;19.08;;;10.02;;
80175;SDS011;69501;42.124;24.722;2023-07-20T09:14:07;13.88;;;10.13;;
80175;SDS011;69501;42.124;24.722;2023-07-20T09:16:53;16.20;;;10.35;;
80175;SDS011;69501;42.124;24.722;2023-07-20T09:19:20;16.13;;;9.45;;
80175;SDS011;69501;42.124;24.722;2023-07-20T09:21:47;14.25;;;10.40;;
80175;SDS011;69501;42.124;24.722;2023-07-20T09:24:14;14.35;;;10.55;;
80175;SDS011;69501;42.124;24.722;2023-07-20T09:26:41;16.20;;;10.02;;
80175;SDS011;69501;42.124;24.722;2023-07-20T09:29:08;19.88;;;10.30;;
80175;SDS011;69501;42.124;24.722;2023-07-20T09:31:35;15.70;;;10.02;;
80175;SDS011;69501;42.124;24.722;2023-07-20T09:34:01;16.27;;;11.18;;
80175;SDS011;69501;42.124;24.722;2023-07-20T09:36:28;17.02;;;10.63;;
80175;SDS011;69501;42.124;24.722;2023-07-20T09:38:53;16.52;;;10.68;;
80175;SDS011;69501;42.124;24.722;2023-07-20T09:41:20;15.82;;;10.27;;
80175;SDS011;69501;42.124;24.722;2023-07-20T09:43:46;16.80;;;10.40;;
80175;SDS011;69501;42.124;24.722;2023-07-20T09:46:12;17.13;;;11.23;;
80175;SDS011;69501;42.124;24.722;2023-07-20T09:48:39;21.70;;;10.90;;
80175;SDS011;69501;42.124;24.722;2023-07-20T09:51:04;16.35;;;10.05;;
80175;SDS011;69501;42.124;24.722;2023-07-20T09:53:32;20.27;;;11.18;;
80175;SDS011;69501;42.124;24.722;2023-07-20T09:55:58;15.00;;;10.13;;
80175;SDS011;69501;42.124;24.722;2023-07-20T09:58:27;17.77;;;10.85;;
80175;SDS011;69501;42.124;24.722;2023-07-20T10:00:57;13.90;;;10.02;;
80175;SDS011;69501;42.124;24.722;2023-07-20T10:03:26;13.80;;;10.32;;
80175;SDS011;69501;42.124;24.722;2023-07-20T10:05:58;15.57;;;10.87;;
80175;SDS011;69501;42.124;24.722;2023-07-20T10:08:32;21.55;;;11.27;;
80175;SDS011;69501;42.124;24.722;2023-07-20T10:11:03;16.42;;;10.85;;
80175;SDS011;69501;42.124;24.722;2023-07-20T10:13:30;16.85;;;10.60;;
80175;SDS011;69501;42.124;24.722;2023-07-20T10:15:59;15.40;;;10.60;;
80175;SDS011;69501;42.124;24.722;2023-07-20T10:18:29;15.25;;;10.25;;
80175;SDS011;69501;42.124;24.722;2023-07-20T10:20:59;15.25;;;10.20;;
80175;SDS011;69501;42.124;24.722;2023-07-20T10:23:28;19.77;;;10.57;;
80175;SDS011;69501;42.124;24.722;2023-07-20T10:25:57;17.92;;;10.35;;
80175;SDS011;69501;42.124;24.722;2023-07-20T10:28:24;14.48;;;10.30;;
80175;SDS011;69501;42.124;24.722;2023-07-20T10:30:52;17.08;;;10.60;;
80175;SDS011;69501;42.124;24.722;2023-07-20T10:33:18;14.15;;;10.15;;
80175;SDS011;69501;42.124;24.722;2023-07-20T10:35:52;12.02;;;10.55;;
80175;SDS011;69501;42.124;24.722;2023-07-20T10:38:17;17.30;;;10.27;;
80175;SDS011;69501;42.124;24.722;2023-07-20T10:40:43;14.27;;;10.85;;
80175;SDS011;69501;42.124;24.722;2023-07-20T10:43:19;14.63;;;11.00;;
80175;SDS011;69501;42.124;24.722;2023-07-20T10:45:49;12.38;;;10.38;;
80175;SDS011;69501;42.124;24.722;2023-07-20T10:48:22;15.75;;;10.75;;
80175;SDS011;69501;42.124;24.722;2023-07-20T10:53:38;14.70;;;10.02;;
80175;SDS011;69501;42.124;24.722;2023-07-20T10:56:08;11.75;;;10.43;;
80175;SDS011;69501;42.124;24.722;2023-07-20T10:58:41;16.20;;;10.45;;
80175;SDS011;69501;42.124;24.722;2023-07-20T11:01:07;12.50;;;10.43;;
80175;SDS011;69501;42.124;24.722;2023-07-20T11:03:36;18.23;;;10.27;;
80175;SDS011;69501;42.124;24.722;2023-07-20T11:11:33;13.73;;;10.38;;
80175;SDS011;69501;42.124;24.722;2023-07-20T11:14:01;11.70;;;9.32;;
80175;SDS011;69501;42.124;24.722;2023-07-20T11:16:37;13.25;;;10.10;;
80175;SDS011;69501;42.124;24.722;2023-07-20T11:19:04;15.38;;;10.23;;
80175;SDS011;69501;42.124;24.722;2023-07-20T11:21:37;17.05;;;8.57;;
80175;SDS011;69501;42.124;24.722;2023-07-20T11:24:04;13.88;;;9.85;;
80175;SDS011;69501;42.124;24.722;2023-07-20T11:26:30;11.98;;;9.23;;
80175;SDS011;69501;42.124;24.722;2023-07-20T11:29:05;13.95;;;9.32;;
80175;SDS011;69501;42.124;24.722;2023-07-20T11:31:34;14.90;;;8.48;;
80175;SDS011;69501;42.124;24.722;2023-07-20T11:34:03;16.38;;;8.95;;
80175;SDS011;69501;42.124;24.722;2023-07-20T11:36:29;14.18;;;9.50;;
80175;SDS011;69501;42.124;24.722;2023-07-20T11:38:55;14.50;;;8.30;;
80175;SDS011;69501;42.124;24.722;2023-07-20T11:41:21;12.65;;;9.05;;
80175;SDS011;69501;42.124;24.722;2023-07-20T11:43:47;10.32;;;9.10;;
80175;SDS011;69501;42.124;24.722;2023-07-20T11:46:16;14.73;;;8.65;;
80175;SDS011;69501;42.124;24.722;2023-07-20T11:48:42;14.23;;;9.52;;
80175;SDS011;69501;42.124;24.722;2023-07-20T11:51:13;13.10;;;8.48;;
80175;SDS011;69501;42.124;24.722;2023-07-20T11:53:42;11.45;;;8.65;;
80175;SDS011;69501;42.124;24.722;2023-07-20T11:56:11;20.85;;;8.98;;
80175;SDS011;69501;42.124;24.722;2023-07-20T11:58:41;11.60;;;8.18;;
80175;SDS011;69501;42.124;24.722;2023-07-20T12:01:10;9.32;;;8.15;;
80175;SDS011;69501;42.124;24.722;2023-07-20T12:03:42;10.68;;;7.63;;
80175;SDS011;69501;42.124;24.722;2023-07-20T12:06:09;10.23;;;7.85;;
80175;SDS011;69501;42.124;24.722;2023-07-20T12:08:37;12.73;;;7.68;;
80175;SDS011;69501;42.124;24.722;2023-07-20T12:11:04;11.55;;;7.53;;
80175;SDS011;69501;42.124;24.722;2023-07-20T12:16:12;17.50;;;7.88;;
80175;SDS011;69501;42.124;24.722;2023-07-20T12:18:39;10.98;;;8.10;;
80175;SDS011;69501;42.124;24.722;2023-07-20T12:21:06;12.80;;;8.05;;
80175;SDS011;69501;42.124;24.722;2023-07-20T12:23:36;18.42;;;8.57;;
80175;SDS011;69501;42.124;24.722;2023-07-20T12:26:05;14.25;;;8.13;;
80175;SDS011;69501;42.124;24.722;2023-07-20T12:28:32;11.27;;;8.43;;
80175;SDS011;69501;42.124;24.722;2023-07-20T12:30:58;15.10;;;8.55;;
80175;SDS011;69501;42.124;24.722;2023-07-20T12:33:23;11.00;;;7.15;;
80175;SDS011;69501;42.124;24.722;2023-07-20T12:35:49;21.42;;;7.53;;
80175;SDS011;69501;42.124;24.722;2023-07-20T12:38:16;13.20;;;7.03;;
80175;SDS011;69501;42.124;24.722;2023-07-20T12:40:42;10.30;;;7.40;;
80175;SDS011;69501;42.124;24.722;2023-07-20T12:43:07;12.18;;;7.63;;
80175;SDS011;69501;42.124;24.722;2023-07-20T12:45:33;15.57;;;8.30;;
80175;SDS011;69501;42.124;24.722;2023-07-20T12:47:59;11.57;;;7.40;;
80175;SDS011;69501;42.124;24.722;2023-07-20T12:50:26;27.52;;;8.07;;
80175;SDS011;69501;42.124;24.722;2023-07-20T12:52:52;18.20;;;7.50;;
80175;SDS011;69501;42.124;24.722;2023-07-20T12:55:18;28.02;;;7.90;;
80175;SDS011;69501;42.124;24.722;2023-07-20T12:57:43;16.40;;;7.88;;
80175;SDS011;69501;42.124;24.722;2023-07-20T13:00:11;17.38;;;6.93;;
80175;SDS011;69501;42.124;24.722;2023-07-20T13:02:38;12.07;;;7.35;;
80175;SDS011;69501;42.124;24.722;2023-07-20T13:05:04;19.58;;;7.78;;
80175;SDS011;69501;42.124;24.722;2023-07-20T13:07:31;15.48;;;7.72;;
80175;SDS011;69501;42.124;24.722;2023-07-20T13:10:00;17.67;;;8.07;;
80175;SDS011;69501;42.124;24.722;2023-07-20T13:12:27;11.93;;;7.25;;
80175;SDS011;69501;42.124;24.722;2023-07-20T13:14:54;16.08;;;7.25;;
80175;SDS011;69501;42.124;24.722;2023-07-20T13:17:21;13.73;;;7.22;;
80175;SDS011;69501;42.124;24.722;2023-07-20T13:19:47;12.00;;;7.03;;
80175;SDS011;69501;42.124;24.722;2023-07-20T13:22:13;17.92;;;7.30;;
80175;SDS011;69501;42.124;24.722;2023-07-20T13:24:39;15.85;;;7.45;;
80175;SDS011;69501;42.124;24.722;2023-07-20T13:27:06;16.23;;;7.55;;
80175;SDS011;69501;42.124;24.722;2023-07-20T13:29:31;15.27;;;7.40;;
80175;SDS011;69501;42.124;24.722;2023-07-20T13:31:57;13.90;;;7.60;;
80175;SDS011;69501;42.124;24.722;2023-07-20T13:34:24;11.38;;;7.20;;
80175;SDS011;69501;42.124;24.722;2023-07-20T13:36:51;11.60;;;7.25;;
80175;SDS011;69501;42.124;24.722;2023-07-20T13:39:16;16.25;;;7.72;;
80175;SDS011;69501;42.124;24.722;2023-07-20T13:41:42;11.38;;;6.45;;
80175;SDS011;69501;42.124;24.722;2023-07-20T13:44:08;18.10;;;7.18;;
80175;SDS011;69501;42.124;24.722;2023-07-20T13:46:34;15.85;;;6.78;;
80175;SDS011;69501;42.124;24.722;2023-07-20T13:49:00;13.20;;;6.65;;
80175;SDS011;69501;42.124;24.722;2023-07-20T13:51:25;18.08;;;6.95;;
80175;SDS011;69501;42.124;24.722;2023-07-20T13:53:51;12.32;;;6.30;;
80175;SDS011;69501;42.124;24.722;2023-07-20T13:56:17;10.90;;;6.45;;
80175;SDS011;69501;42.124;24.722;2023-07-20T13:58:42;13.05;;;6.30;;
80175;SDS011;69501;42.124;24.722;2023-07-20T14:01:08;12.90;;;6.43;;
80175;SDS011;69501;42.124;24.722;2023-07-20T14:03:34;18.05;;;7.10;;
80175;SDS011;69501;42.124;24.722;2023-07-20T14:05:59;14.18;;;6.38;;
80175;SDS011;69501;42.124;24.722;2023-07-20T14:08:25;10.95;;;6.50;;
80175;SDS011;69501;42.124;24.722;2023-07-20T14:10:50;15.00;;;6.75;;
80175;SDS011;69501;42.124;24.722;2023-07-20T14:13:16;12.18;;;6.88;;
80175;SDS011;69501;42.124;24.722;2023-07-20T14:15:41;11.40;;;7.72;;
80175;SDS011;69501;42.124;24.722;2023-07-20T14:18:07;16.13;;;6.97;;
80175;SDS011;69501;42.124;24.722;2023-07-20T14:20:33;15.45;;;6.32;;
80175;SDS011;69501;42.124;24.722;2023-07-20T14:22:58;11.95;;;6.47;;
80175;SDS011;69501;42.124;24.722;2023-07-20T14:25:24;14.10;;;6.28;;
80175;SDS011;69501;42.124;24.722;2023-07-20T14:27:50;16.17;;;6.60;;
80175;SDS011;69501;42.124;24.722;2023-07-20T14:30:16;11.55;;;6.05;;
80175;SDS011;69501;42.124;24.722;2023-07-20T14:32:41;11.13;;;6.10;;
80175;SDS011;69501;42.124;24.722;2023-07-20T14:35:07;14.52;;;6.18;;
80175;SDS011;69501;42.124;24.722;2023-07-20T14:37:34;13.75;;;6.35;;
80175;SDS011;69501;42.124;24.722;2023-07-20T14:39:59;11.52;;;5.82;;
80175;SDS011;69501;42.124;24.722;2023-07-20T14:42:25;12.43;;;6.32;;